Time;durP1;ratioP1;P1;durP2;ratioP2;P2;SDS_P1;SDS_P2;PMS_P1;PMS_P2;Temp;Humidity;BMP_temperature;BMP_pressure;BME280_temperature;BME280_humidity;BME280_pressure;Samples;Min_cycle;Max_cycle;Signal;HPM_P1;HPM_P2
2022/11/08 00:01:48;;;;;;;9.52;2.20;;;;;;;13.28;86.07;101001.47;4997638;28;20157;-65
2022/11/08 00:04:15;;;;;;;8.10;2.25;;;;;;;13.23;86.48;101004.00;5003415;28;21941;-65
2022/11/08 00:14:55;;;;;;;11.07;2.40;;;;;;;13.25;86.35;101014.34;5002451;28;20047;-65
2022/11/08 00:17:23;;;;;;;9.80;2.33;;;;;;;13.21;86.45;101007.38;4999245;28;20125;-65
2022/11/08 00:19:49;;;;;;;10.95;1.90;;;;;;;13.20;86.48;101006.47;4998756;28;20037;-65
2022/11/08 00:22:15;;;;;;;6.93;1.77;;;;;;;13.17;86.52;101001.25;5000951;28;20427;-65
2022/11/08 00:24:40;;;;;;;9.75;2.03;;;;;;;13.16;86.50;100999.50;5000877;28;20033;-65
2022/11/08 00:27:09;;;;;;;10.10;2.17;;;;;;;13.14;86.68;101006.34;5001738;28;20092;-65
2022/11/08 00:29:35;;;;;;;8.68;1.80;;;;;;;13.13;86.44;101002.03;4999387;28;20026;-65
2022/11/08 00:32:05;;;;;;;11.15;2.20;;;;;;;13.13;86.52;100999.44;4999622;28;20449;-65
2022/11/08 00:34:34;;;;;;;7.50;2.00;;;;;;;13.13;86.79;100997.72;5001806;28;20469;-65
2022/11/08 00:37:00;;;;;;;7.10;1.90;;;;;;;13.09;86.62;100995.06;5000551;28;20158;-65
2022/11/08 00:39:25;;;;;;;7.70;1.88;;;;;;;13.09;86.75;101000.22;5001339;28;20029;-65
2022/11/08 00:41:51;;;;;;;9.85;1.90;;;;;;;13.05;86.82;100995.84;5000555;28;20048;-66
2022/11/08 00:44:16;;;;;;;14.63;2.60;;;;;;;13.03;86.83;100987.19;4998843;28;20073;-65
2022/11/08 00:46:42;;;;;;;7.88;1.75;;;;;;;13.07;86.71;100983.84;4997002;28;20028;-65
2022/11/08 00:49:09;;;;;;;13.05;2.03;;;;;;;13.01;86.88;100987.16;5002484;28;20053;-65
2022/11/08 00:51:35;;;;;;;6.25;1.40;;;;;;;13.05;86.82;100990.69;4999384;28;20033;-65
2022/11/08 00:54:01;;;;;;;6.43;1.92;;;;;;;13.00;86.93;100984.56;5000164;28;20053;-64
2022/11/08 00:56:27;;;;;;;10.13;2.13;;;;;;;12.99;86.88;100978.53;4999380;28;20168;-66
2022/11/08 00:58:52;;;;;;;7.72;1.75;;;;;;;12.97;86.85;100979.31;4998163;28;20065;-65
2022/11/08 01:01:19;;;;;;;7.78;1.95;;;;;;;12.97;87.05;100984.47;4999827;28;20042;-65
2022/11/08 01:03:46;;;;;;;6.45;1.80;;;;;;;12.93;87.20;100970.66;5000603;28;20124;-65
2022/11/08 01:06:13;;;;;;;10.32;2.03;;;;;;;12.95;87.17;100978.44;5001594;28;20092;-66
2022/11/08 01:08:39;;;;;;;7.78;1.90;;;;;;;12.93;87.37;100969.78;4999265;28;20028;-65
2022/11/08 01:11:07;;;;;;;8.30;1.85;;;;;;;12.91;87.58;100976.63;5000659;28;20408;-65
2022/11/08 01:13:33;;;;;;;10.57;2.42;;;;;;;12.87;87.57;100971.41;4999515;28;20026;-65
2022/11/08 01:16:05;;;;;;;8.35;1.55;;;;;;;12.93;87.45;100975.81;4998662;28;20022;-65
2022/11/08 01:18:30;;;;;;;4.90;1.40;;;;;;;12.91;87.53;100974.03;4998995;28;20030;-65
2022/11/08 01:20:56;;;;;;;7.20;1.52;;;;;;;12.88;87.53;100967.97;5001239;28;20766;-65
2022/11/08 01:23:21;;;;;;;6.60;1.90;;;;;;;12.87;87.72;100968.81;5001876;28;20040;-65
2022/11/08 01:25:47;;;;;;;8.02;1.90;;;;;;;12.87;87.77;100965.38;5000485;28;20033;-65
2022/11/08 01:28:13;;;;;;;8.15;2.03;;;;;;;12.87;87.81;100966.25;5002885;28;20056;-65
2022/11/08 01:30:41;;;;;;;7.35;1.83;;;;;;;12.86;87.61;100959.34;4998208;28;20034;-65
2022/11/08 01:33:07;;;;;;;10.40;2.00;;;;;;;12.85;87.65;100969.63;5001728;28;20037;-65
2022/11/08 01:35:34;;;;;;;8.77;2.35;;;;;;;12.81;87.62;100960.97;5001631;28;20026;-65
2022/11/08 01:38:00;;;;;;;9.13;2.00;;;;;;;12.81;87.55;100958.38;5007031;28;20505;-65
2022/11/08 01:40:26;;;;;;;6.90;1.60;;;;;;;12.81;87.65;100950.63;5003837;28;20507;-65
2022/11/08 01:42:52;;;;;;;8.05;1.85;;;;;;;12.79;87.63;100947.13;5003831;28;20099;-65
2022/11/08 01:46:09;;;;;;;9.07;1.88;;;;;;;12.88;87.34;100946.47;5001512;28;20096;-65
2022/11/08 01:48:43;;;;;;;6.28;1.80;;;;;;;12.79;87.45;100936.81;5006547;28;20038;-65
2022/11/08 01:51:13;;;;;;;8.35;2.00;;;;;;;12.78;87.75;100934.22;5006097;28;20040;-65
2022/11/08 01:53:39;;;;;;;8.13;2.30;;;;;;;12.72;87.83;100929.78;5004310;28;20476;-65
2022/11/08 01:56:06;;;;;;;13.00;2.42;;;;;;;12.72;87.73;100922.06;5004120;28;20088;-65
2022/11/08 01:58:36;;;;;;;11.18;2.38;;;;;;;12.70;87.88;100921.16;4994177;28;20457;-65
2022/11/08 02:01:02;;;;;;;7.65;2.00;;;;;;;12.68;87.82;100906.47;4999818;28;20057;-65
2022/11/08 02:03:32;;;;;;;6.13;2.20;;;;;;;12.70;87.77;100909.97;5000384;28;20041;-65
2022/11/08 02:05:57;;;;;;;9.13;2.33;;;;;;;12.66;87.97;100909.03;5000914;28;20034;-65
2022/11/08 02:08:41;;;;;;;8.55;2.58;;;;;;;12.71;88.10;100903.97;5006408;28;20124;-65
2022/11/08 02:11:10;;;;;;;8.98;1.95;;;;;;;12.68;87.90;100903.91;5002847;28;20396;-65
2022/11/08 02:13:37;;;;;;;7.97;1.70;;;;;;;12.63;88.20;100893.50;5001081;28;20025;-65
2022/11/08 02:16:14;;;;;;;10.45;2.40;;;;;;;12.66;88.13;100887.53;5001885;28;20064;-65
2022/11/08 02:18:41;;;;;;;7.43;1.90;;;;;;;12.61;88.11;100885.72;5006344;28;20044;-65
2022/11/08 02:21:18;;;;;;;10.27;2.03;;;;;;;12.63;88.14;100885.78;5002335;28;20503;-65
2022/11/08 02:23:48;;;;;;;9.00;1.70;;;;;;;12.58;88.17;100879.63;5002421;28;20044;-65
2022/11/08 02:26:16;;;;;;;11.10;1.95;;;;;;;12.63;88.09;100884.91;5004550;28;20036;-65
2022/11/08 02:28:43;;;;;;;8.65;2.03;;;;;;;12.59;88.10;100873.63;5003187;28;20041;-65
2022/11/08 02:31:11;;;;;;;8.23;1.90;;;;;;;12.60;88.20;100873.66;5002638;28;20033;-65
2022/11/08 02:33:37;;;;;;;5.85;1.75;;;;;;;12.58;88.17;100874.47;5002935;28;20068;-65
2022/11/08 02:36:04;;;;;;;8.38;1.80;;;;;;;12.59;88.10;100865.91;5006821;28;20026;-65
2022/11/08 02:38:32;;;;;;;9.00;2.03;;;;;;;12.59;87.91;100860.75;5004145;28;20065;-65
2022/11/08 02:40:57;;;;;;;9.18;1.95;;;;;;;12.57;88.08;100858.13;5004027;28;20038;-65
2022/11/08 02:43:23;;;;;;;5.20;1.67;;;;;;;12.62;88.03;100865.97;5002924;28;20038;-65
2022/11/08 02:45:50;;;;;;;6.22;1.40;;;;;;;12.58;87.84;100859.00;5003356;28;20120;-65
2022/11/08 02:48:17;;;;;;;6.53;1.60;;;;;;;12.56;88.00;100864.16;5001589;28;20033;-65
2022/11/08 02:50:42;;;;;;;5.70;1.70;;;;;;;12.53;88.05;100856.31;5003926;28;20455;-65
2022/11/08 02:53:08;;;;;;;7.13;1.80;;;;;;;12.56;87.85;100850.38;5000510;28;20044;-65
2022/11/08 02:55:34;;;;;;;7.97;1.70;;;;;;;12.56;87.82;100845.22;4984902;28;20025;-65
2022/11/08 02:58:01;;;;;;;5.25;1.50;;;;;;;12.53;87.84;100845.16;5004230;28;20428;-65
2022/11/08 03:00:27;;;;;;;4.97;1.77;;;;;;;12.53;87.73;100845.16;5000919;28;20077;-65
2022/11/08 03:02:53;;;;;;;7.13;1.45;;;;;;;12.56;87.74;100833.19;5004073;28;20107;-65
2022/11/08 03:05:19;;;;;;;7.22;1.38;;;;;;;12.55;87.65;100834.00;4986035;28;20053;-65
2022/11/08 03:07:44;;;;;;;7.80;1.55;;;;;;;12.52;87.67;100833.09;5002543;28;20033;-65
2022/11/08 03:10:10;;;;;;;5.68;1.60;;;;;;;12.53;87.77;100824.50;5002160;28;20026;-65
2022/11/08 03:12:36;;;;;;;6.68;1.77;;;;;;;12.50;87.58;100819.31;5002761;28;20057;-65
2022/11/08 03:15:03;;;;;;;7.15;1.70;;;;;;;12.49;87.74;100815.81;5001930;28;20045;-65
2022/11/08 03:17:28;;;;;;;6.65;1.63;;;;;;;12.47;87.69;100816.66;5002938;28;20591;-65
2022/11/08 03:19:55;;;;;;;5.85;1.83;;;;;;;12.44;87.66;100804.59;5002722;28;20049;-65
2022/11/08 03:22:20;;;;;;;6.47;1.70;;;;;;;12.42;87.61;100801.09;4999590;28;20041;-65
2022/11/08 03:24:45;;;;;;;7.93;2.35;;;;;;;12.36;87.63;100798.38;5003032;28;20030;-65
2022/11/08 03:27:14;;;;;;;8.88;2.45;;;;;;;12.43;87.50;100794.22;5001025;28;20037;-65
2022/11/08 03:29:39;;;;;;;7.75;2.30;;;;;;;12.47;87.42;100785.72;5003575;28;20033;-65
2022/11/08 03:32:04;;;;;;;8.05;2.03;;;;;;;12.45;87.32;100800.28;5006819;28;20038;-65
2022/11/08 03:34:30;;;;;;;8.18;2.40;;;;;;;12.43;87.34;100787.34;4998278;28;20040;-65
2022/11/08 03:36:55;;;;;;;7.57;1.98;;;;;;;12.43;87.30;100783.91;5002267;28;20578;-65
2022/11/08 03:39:20;;;;;;;9.93;2.20;;;;;;;12.38;87.30;100775.19;5000485;28;20463;-65
2022/11/08 03:41:46;;;;;;;10.77;1.95;;;;;;;12.40;87.04;100768.38;5001830;28;20042;-65
2022/11/08 03:44:11;;;;;;;8.65;2.00;;;;;;;12.37;87.07;100770.88;5001678;28;20038;-65
2022/11/08 03:46:36;;;;;;;8.90;2.35;;;;;;;12.34;86.84;100751.94;5000291;28;20037;-65
2022/11/08 03:49:02;;;;;;;7.82;1.80;;;;;;;12.30;86.77;100747.56;5002083;28;20176;-65
2022/11/08 03:51:27;;;;;;;8.82;2.10;;;;;;;12.33;86.79;100745.06;5004572;28;20079;-65
2022/11/08 03:53:52;;;;;;;7.70;2.33;;;;;;;12.30;86.81;100739.84;4982900;28;20133;-65
2022/11/08 03:56:18;;;;;;;6.00;1.85;;;;;;;12.31;86.69;100735.53;4998451;28;20038;-65
2022/11/08 03:58:43;;;;;;;6.07;2.00;;;;;;;12.27;86.55;100723.44;5000592;28;20030;-65
2022/11/08 04:01:08;;;;;;;8.02;1.90;;;;;;;12.24;86.80;100726.81;5004066;28;20081;-66
2022/11/08 04:03:34;;;;;;;5.50;1.70;;;;;;;12.25;86.80;100725.13;5001165;28;20061;-65
2022/11/08 04:06:00;;;;;;;6.97;1.55;;;;;;;12.24;86.65;100721.66;5003345;28;20088;-65
2022/11/08 04:08:27;;;;;;;7.25;1.65;;;;;;;12.22;86.40;100722.50;4999943;28;20017;-65
2022/11/08 04:10:55;;;;;;;4.70;1.50;;;;;;;12.22;85.94;100723.34;5001382;28;20025;-65
2022/11/08 04:16:05;;;;;;;5.03;1.67;;;;;;;12.19;85.73;100700.09;4998025;28;20556;-65
2022/11/08 04:21:20;;;;;;;9.10;1.77;;;;;;;12.22;85.78;100707.03;4985186;28;20111;-65
2022/11/08 04:23:51;;;;;;;6.22;1.73;;;;;;;12.23;85.42;100711.34;5000921;28;20022;-65
2022/11/08 04:26:17;;;;;;;9.30;1.55;;;;;;;12.18;85.18;100706.09;5003365;28;20160;-65
2022/11/08 04:28:44;;;;;;;7.55;1.60;;;;;;;12.19;85.09;100694.94;5001348;28;20033;-65
2022/11/08 04:31:11;;;;;;;6.82;1.60;;;;;;;12.18;84.83;100692.31;5002889;28;20099;-65
2022/11/08 04:33:36;;;;;;;5.93;1.63;;;;;;;12.14;84.86;100686.28;5002568;28;20049;-65
2022/11/08 04:36:08;;;;;;;6.13;1.67;;;;;;;12.17;84.78;100688.03;5000068;28;20026;-65
2022/11/08 04:38:34;;;;;;;7.68;1.58;;;;;;;12.13;84.65;100679.34;4999871;28;20077;-65
2022/11/08 04:41:01;;;;;;;7.65;1.58;;;;;;;12.16;84.43;100673.41;4999732;28;20084;-65
2022/11/08 04:43:27;;;;;;;6.97;1.77;;;;;;;12.13;84.48;100683.63;4997884;28;20180;-65
2022/11/08 04:45:58;;;;;;;7.25;1.88;;;;;;;12.13;84.41;100674.19;5003761;28;20120;-65
2022/11/08 04:48:23;;;;;;;5.68;1.40;;;;;;;12.14;83.87;100668.22;4998558;28;20128;-66
2022/11/08 04:50:49;;;;;;;6.05;1.42;;;;;;;12.10;83.62;100668.13;4999199;28;20466;-65
2022/11/08 04:53:14;;;;;;;4.65;1.60;;;;;;;12.06;83.40;100656.88;5001452;28;20041;-65
2022/11/08 04:55:39;;;;;;;4.32;1.35;;;;;;;12.08;83.24;100662.97;4985749;28;20026;-65
2022/11/08 04:58:05;;;;;;;9.25;1.50;;;;;;;12.04;83.48;100654.28;4997942;28;20052;-65
2022/11/08 05:00:30;;;;;;;4.22;1.27;;;;;;;12.04;83.41;100640.53;4997814;28;20030;-65
2022/11/08 05:02:55;;;;;;;4.57;1.20;;;;;;;12.06;83.20;100654.31;5000383;28;20038;-66
2022/11/08 05:05:21;;;;;;;5.82;1.25;;;;;;;12.01;83.02;100649.09;4979521;28;20030;-65
2022/11/08 05:07:47;;;;;;;6.25;1.30;;;;;;;12.03;82.88;100641.38;4998751;28;20045;-65
2022/11/08 05:10:12;;;;;;;5.55;1.30;;;;;;;12.01;82.62;100645.63;4998965;28;20034;-65
2022/11/08 05:12:37;;;;;;;10.20;1.77;;;;;;;11.99;82.72;100630.13;4983464;28;20096;-65
2022/11/08 05:15:03;;;;;;;8.70;1.45;;;;;;;12.01;82.64;100631.06;4999941;28;20026;-65
2022/11/08 05:17:28;;;;;;;5.28;1.40;;;;;;;11.99;82.31;100637.88;4998677;28;20219;-65
2022/11/08 05:25:22;;;;;;;4.88;1.70;;;;;;;11.98;82.08;100637.84;4982978;28;20112;-65
2022/11/08 05:27:47;;;;;;;3.42;1.30;;;;;;;11.93;81.80;100635.16;4998299;28;20029;-65
2022/11/08 05:30:12;;;;;;;5.20;1.35;;;;;;;11.92;81.98;100636.00;4985726;28;20034;-65
2022/11/08 05:32:38;;;;;;;4.57;1.20;;;;;;;11.92;81.79;100638.59;5000374;28;20038;-65
2022/11/08 05:35:03;;;;;;;3.60;1.13;;;;;;;11.90;81.64;100623.97;4985010;28;20038;-65
2022/11/08 05:37:29;;;;;;;4.93;1.10;;;;;;;11.91;81.34;100623.13;4999261;28;20037;-65
2022/11/08 05:39:54;;;;;;;5.72;1.10;;;;;;;11.90;81.37;100614.53;5002274;28;20373;-65
2022/11/08 05:42:19;;;;;;;5.10;1.15;;;;;;;11.89;80.92;100607.63;4998095;28;21047;-65
2022/11/08 05:44:45;;;;;;;5.50;1.30;;;;;;;11.90;81.11;100611.94;4978345;28;20827;-65
2022/11/08 05:47:10;;;;;;;3.47;1.23;;;;;;;11.89;80.67;100611.88;4997666;28;20038;-65
2022/11/08 05:49:35;;;;;;;6.47;1.50;;;;;;;11.91;80.79;100615.38;4999671;28;21782;-65
2022/11/08 05:52:01;;;;;;;3.42;1.27;;;;;;;11.90;80.73;100616.22;5000373;28;20149;-65
2022/11/08 05:54:26;;;;;;;4.80;1.25;;;;;;;11.94;80.51;100620.56;4998811;28;20042;-65
2022/11/08 05:56:51;;;;;;;5.75;1.30;;;;;;;11.90;80.49;100614.53;5000554;28;20575;-65
2022/11/08 05:59:17;;;;;;;3.92;1.27;;;;;;;11.92;80.46;100620.56;4998020;28;20444;-65
2022/11/08 06:01:42;;;;;;;3.70;1.10;;;;;;;11.93;80.37;100613.69;4985850;28;20424;-65
2022/11/08 06:04:07;;;;;;;4.80;1.30;;;;;;;11.86;80.15;100597.25;5002980;28;20057;-65
2022/11/08 06:06:33;;;;;;;3.40;1.30;;;;;;;11.87;80.31;100609.28;4999223;28;20022;-65
2022/11/08 06:08:58;;;;;;;5.47;1.55;;;;;;;11.89;80.25;100602.47;5001530;28;20621;-65
2022/11/08 06:11:26;;;;;;;5.43;1.70;;;;;;;11.90;80.34;100603.34;5000145;28;20430;-65
2022/11/08 06:13:52;;;;;;;7.78;1.70;;;;;;;11.90;80.00;100608.50;5003431;28;20024;-65
2022/11/08 06:16:20;;;;;;;4.13;1.20;;;;;;;11.86;79.94;100607.56;4998498;28;20065;-65
2022/11/08 06:18:46;;;;;;;5.25;1.50;;;;;;;11.85;79.97;100602.38;5000182;28;20039;-65
2022/11/08 06:21:18;;;;;;;6.38;1.90;;;;;;;11.87;80.00;100605.84;5004555;28;20104;-65
2022/11/08 06:23:43;;;;;;;4.15;1.52;;;;;;;11.85;79.75;100608.41;4985687;28;20049;-65
2022/11/08 06:26:09;;;;;;;5.90;1.60;;;;;;;11.85;79.80;100605.84;5005804;28;20081;-65
2022/11/08 06:28:34;;;;;;;6.22;1.70;;;;;;;11.82;79.55;100608.34;4999424;28;20029;-65
2022/11/08 06:31:01;;;;;;;4.72;2.00;;;;;;;11.82;79.78;100611.78;5004674;28;20477;-65
2022/11/08 06:33:27;;;;;;;4.80;1.60;;;;;;;11.80;79.57;100603.13;5004738;28;20030;-65
2022/11/08 06:35:53;;;;;;;6.38;1.80;;;;;;;11.83;79.60;100602.38;5002770;28;20038;-65
2022/11/08 06:38:18;;;;;;;3.28;1.50;;;;;;;11.81;79.39;100602.31;5002235;28;20032;-65
2022/11/08 06:40:44;;;;;;;4.80;1.65;;;;;;;11.80;79.40;100599.69;5001925;28;20092;-65
2022/11/08 06:43:13;;;;;;;2.90;1.33;;;;;;;11.82;79.38;100606.63;5004530;28;20109;-66
2022/11/08 06:45:39;;;;;;;5.70;1.23;;;;;;;11.82;79.37;100603.19;5001567;28;20026;-64
2022/11/08 06:48:06;;;;;;;6.88;1.55;;;;;;;11.78;79.22;100612.53;5003387;28;20524;-65
2022/11/08 06:50:33;;;;;;;4.28;1.25;;;;;;;11.75;79.10;100597.00;5003596;28;20038;-65
2022/11/08 06:53:03;;;;;;;7.28;1.60;;;;;;;11.77;79.09;100603.09;5005987;28;20408;-65
2022/11/08 06:55:30;;;;;;;3.78;1.60;;;;;;;11.76;79.04;100616.78;5002361;28;20022;-65
2022/11/08 06:57:55;;;;;;;6.50;1.70;;;;;;;11.73;79.21;100601.28;5003929;28;20033;-64
2022/11/08 07:00:21;;;;;;;5.57;1.67;;;;;;;11.74;79.14;100603.00;5004193;28;20041;-64
2022/11/08 07:02:54;;;;;;;6.45;1.38;;;;;;;11.79;79.04;100610.84;5000231;28;20029;-64
2022/11/08 07:05:20;;;;;;;5.28;1.38;;;;;;;11.74;78.70;100612.44;5005231;28;20033;-64
2022/11/08 07:07:50;;;;;;;7.53;1.90;;;;;;;11.75;79.23;100612.47;5002591;28;20399;-65
2022/11/08 07:10:20;;;;;;;4.78;1.70;;;;;;;11.75;78.93;100620.19;5002486;28;20048;-65
2022/11/08 07:12:47;;;;;;;5.43;1.70;;;;;;;11.74;78.99;100623.63;5001817;28;20032;-65
2022/11/08 07:15:14;;;;;;;3.97;1.42;;;;;;;11.80;79.15;100620.28;5001963;28;21481;-65
2022/11/08 07:17:39;;;;;;;5.20;1.60;;;;;;;11.77;78.76;100615.97;5003380;28;20032;-65
2022/11/08 07:20:05;;;;;;;5.57;1.40;;;;;;;11.79;78.64;100616.84;5005854;28;20022;-65
2022/11/08 07:22:31;;;;;;;6.40;1.70;;;;;;;11.76;78.66;100610.75;4986329;28;20394;-65
2022/11/08 07:24:56;;;;;;;7.20;1.83;;;;;;;11.80;78.61;100622.88;5004070;28;20041;-65
2022/11/08 07:27:22;;;;;;;7.25;1.70;;;;;;;11.79;78.33;100611.69;5002230;28;20056;-65
2022/11/08 07:29:47;;;;;;;5.75;1.90;;;;;;;11.80;78.26;100608.28;5004567;28;20077;-65
2022/11/08 07:32:12;;;;;;;6.85;1.80;;;;;;;11.80;78.27;100607.41;5003397;28;20045;-65
2022/11/08 07:34:38;;;;;;;8.10;2.00;;;;;;;11.84;78.51;100604.09;5001910;28;20023;-65
2022/11/08 07:37:03;;;;;;;5.47;2.00;;;;;;;11.82;78.50;100610.91;5000569;28;20500;-66
2022/11/08 07:39:28;;;;;;;7.82;2.05;;;;;;;11.84;78.48;100610.97;5001478;28;20436;-65
2022/11/08 07:41:54;;;;;;;7.28;1.95;;;;;;;11.81;78.00;100592.00;5000722;28;20615;-66
2022/11/08 07:44:19;;;;;;;5.55;1.77;;;;;;;11.86;77.93;100591.25;4985273;28;20510;-66
2022/11/08 07:46:45;;;;;;;4.53;1.60;;;;;;;11.86;77.98;100601.53;5001986;28;20034;-66
2022/11/08 07:49:10;;;;;;;6.65;1.90;;;;;;;11.86;78.76;100597.25;5002303;28;20053;-65
2022/11/08 07:51:35;;;;;;;8.40;2.00;;;;;;;11.87;78.19;100604.13;5002273;28;20501;-65
2022/11/08 07:54:00;;;;;;;4.68;1.90;;;;;;;11.90;77.77;100603.34;4979909;28;20079;-65
2022/11/08 07:56:26;;;;;;;8.40;2.15;;;;;;;11.90;78.05;100593.91;5000661;28;20037;-66
2022/11/08 07:58:52;;;;;;;6.43;1.90;;;;;;;11.91;77.89;100594.78;5003827;28;20137;-66
2022/11/08 08:01:17;;;;;;;5.97;2.05;;;;;;;11.92;77.26;100596.50;5001557;28;20033;-66
2022/11/08 08:03:43;;;;;;;6.85;1.95;;;;;;;11.96;77.69;100598.31;4995712;28;20040;-66
2022/11/08 08:06:08;;;;;;;6.28;1.80;;;;;;;11.99;77.54;100598.34;5000842;28;20113;-66
2022/11/08 08:08:34;;;;;;;6.38;2.10;;;;;;;11.95;78.07;100594.88;4994888;28;20038;-65
2022/11/08 08:11:00;;;;;;;6.20;2.00;;;;;;;11.96;77.88;100588.88;4999568;28;20035;-67
2022/11/08 08:13:25;;;;;;;4.28;1.88;;;;;;;12.01;77.51;100602.72;5000432;28;20567;-67
2022/11/08 08:15:51;;;;;;;6.75;2.10;;;;;;;12.04;77.76;100591.56;5003120;28;20049;-66
2022/11/08 08:18:19;;;;;;;5.72;1.90;;;;;;;12.04;77.97;100599.31;4989333;28;20037;-66
2022/11/08 08:20:45;;;;;;;6.45;1.88;;;;;;;12.08;77.32;100594.25;5005205;28;20083;-66
2022/11/08 08:23:11;;;;;;;8.57;1.92;;;;;;;12.10;76.80;100589.09;5003044;28;20038;-67
2022/11/08 08:25:36;;;;;;;7.97;1.70;;;;;;;12.12;77.18;100599.44;4996385;28;20069;-66
2022/11/08 08:28:01;;;;;;;5.05;1.50;;;;;;;12.15;76.95;100602.94;5007502;28;20034;-67
2022/11/08 08:30:29;;;;;;;5.03;1.60;;;;;;;12.17;76.83;100616.72;4980706;28;20504;-67
2022/11/08 08:33:11;;;;;;;5.18;1.40;;;;;;;12.22;76.65;100607.34;5006380;28;20033;-67
2022/11/08 08:35:37;;;;;;;4.55;1.38;;;;;;;12.24;76.67;100620.25;5008727;28;20068;-66
2022/11/08 08:38:04;;;;;;;3.45;1.30;;;;;;;12.26;76.26;100629.78;5007577;28;20548;-67
2022/11/08 08:40:31;;;;;;;4.03;1.27;;;;;;;12.31;76.17;100629.84;4994230;28;20043;-67
2022/11/08 08:42:58;;;;;;;18.80;3.08;;;;;;;12.33;76.93;100620.44;5006224;28;20530;-66
2022/11/08 08:45:24;;;;;;;3.78;1.10;;;;;;;12.40;75.51;100624.84;5010943;28;20029;-66
2022/11/08 08:47:52;;;;;;;5.28;1.20;;;;;;;12.47;75.10;100612.91;5006253;28;20046;-67
2022/11/08 08:50:18;;;;;;;3.75;1.35;;;;;;;12.53;74.88;100616.47;5009315;28;20385;-66
2022/11/08 08:52:43;;;;;;;3.90;1.50;;;;;;;12.57;74.92;100612.25;4992128;28;20571;-69
2022/11/08 08:55:09;;;;;;;5.05;1.35;;;;;;;12.61;73.89;100601.09;4987502;28;20049;-66
2022/11/08 08:57:37;;;;;;;6.45;1.60;;;;;;;12.65;73.63;100602.91;5006210;28;20116;-66
2022/11/08 09:00:04;;;;;;;4.85;1.30;;;;;;;12.68;74.24;100592.63;4989204;28;20037;-67
2022/11/08 09:02:30;;;;;;;4.47;1.25;;;;;;;12.71;74.05;100590.09;5006553;28;20056;-68
2022/11/08 09:04:55;;;;;;;8.52;1.30;;;;;;;12.75;73.71;100591.00;5008792;28;20363;-68
2022/11/08 09:07:21;;;;;;;4.35;1.20;;;;;;;12.77;74.81;100591.91;4984950;28;20030;-66
2022/11/08 09:09:46;;;;;;;3.20;1.20;;;;;;;12.80;74.08;100590.25;5009347;28;20030;-67
2022/11/08 09:12:12;;;;;;;4.38;1.33;;;;;;;12.82;72.67;100585.97;4990015;28;20035;-67
2022/11/08 09:14:37;;;;;;;5.70;1.58;;;;;;;12.85;73.14;100585.97;4992975;28;20869;-67
2022/11/08 09:17:03;;;;;;;2.95;1.10;;;;;;;12.89;73.96;100582.63;4991364;28;20034;-67
2022/11/08 09:19:28;;;;;;;3.97;1.20;;;;;;;12.95;72.66;100584.41;5004055;28;20116;-66
2022/11/08 09:21:53;;;;;;;4.35;1.20;;;;;;;12.97;72.99;100589.59;4972475;28;20060;-66
2022/11/08 09:24:19;;;;;;;3.45;1.20;;;;;;;13.00;73.71;100598.25;4986719;28;20041;-66
2022/11/08 09:26:44;;;;;;;4.15;1.38;;;;;;;13.04;73.53;100589.72;4988286;28;20128;-67
2022/11/08 09:29:10;;;;;;;3.28;1.20;;;;;;;13.05;73.51;100588.88;5006961;28;20078;-67
2022/11/08 09:31:35;;;;;;;3.25;1.30;;;;;;;13.06;72.93;100587.16;4956913;28;20037;-67
2022/11/08 09:34:01;;;;;;;4.30;1.30;;;;;;;13.07;73.01;100591.47;4989375;28;20377;-69
2022/11/08 09:36:26;;;;;;;3.95;1.20;;;;;;;13.09;72.35;100582.00;4987543;28;20109;-67
2022/11/08 09:38:51;;;;;;;4.40;1.13;;;;;;;13.09;72.80;100589.75;4992766;28;20042;-67
2022/11/08 09:41:23;;;;;;;5.32;1.20;;;;;;;13.12;72.51;100593.25;4988921;28;20044;-67
2022/11/08 09:44:00;;;;;;;3.60;1.40;;;;;;;13.14;72.94;100596.72;5009082;28;20033;-67
2022/11/08 09:46:44;;;;;;;3.50;1.40;;;;;;;13.21;73.06;100589.94;4982259;28;20034;-66
2022/11/08 09:49:17;;;;;;;3.97;1.30;;;;;;;13.23;72.40;100583.13;5003935;28;20084;-67
2022/11/08 09:51:42;;;;;;;2.03;1.20;;;;;;;13.29;72.97;100575.44;5004866;28;20124;-66
2022/11/08 09:54:18;;;;;;;5.70;1.45;;;;;;;13.31;73.11;100596.97;5010576;28;20116;-67
2022/11/08 09:56:46;;;;;;;5.30;1.40;;;;;;;13.30;72.79;100600.41;5013009;28;21105;-66
2022/11/08 09:59:17;;;;;;;4.57;1.45;;;;;;;13.33;72.29;100595.28;5016059;28;20113;-66
2022/11/08 10:01:48;;;;;;;5.03;1.35;;;;;;;13.36;72.17;100599.63;5011882;28;20037;-66
2022/11/08 10:04:17;;;;;;;4.22;1.48;;;;;;;13.36;71.81;100595.31;5012277;28;20046;-68
2022/11/08 10:07:12;;;;;;;4.95;1.55;;;;;;;13.44;72.61;100600.56;5009693;28;20030;-67
2022/11/08 10:09:57;;;;;;;4.72;1.20;;;;;;;13.48;72.64;100594.59;5010315;28;20104;-65
2022/11/08 10:12:42;;;;;;;3.28;1.33;;;;;;;13.53;71.88;100599.81;5011981;28;20472;-66
2022/11/08 10:15:16;;;;;;;4.10;1.20;;;;;;;13.58;72.25;100606.75;5011051;28;20136;-66
2022/11/08 10:18:11;;;;;;;6.20;1.23;;;;;;;13.62;72.40;100605.97;5007321;28;20033;-65
2022/11/08 10:21:11;;;;;;;4.93;1.70;;;;;;;13.69;72.70;100617.22;5004893;28;20034;-67
2022/11/08 10:23:42;;;;;;;3.97;1.30;;;;;;;13.75;71.42;100613.84;4972692;28;20626;-68
2022/11/08 10:26:17;;;;;;;4.18;1.38;;;;;;;13.79;71.83;100611.31;4993725;28;20033;-68
2022/11/08 10:28:50;;;;;;;4.32;1.25;;;;;;;13.81;70.32;100608.75;5011255;28;20059;-66
2022/11/08 10:31:18;;;;;;;4.22;1.55;;;;;;;13.81;70.98;100612.19;5016238;28;20033;-67
2022/11/08 10:33:53;;;;;;;4.80;1.40;;;;;;;13.85;71.21;100620.88;5006613;28;20083;-67
2022/11/08 10:36:57;;;;;;;7.10;1.42;;;;;;;13.87;71.26;100617.44;5010452;28;20125;-66
2022/11/08 10:39:27;;;;;;;4.50;1.60;;;;;;;13.85;70.86;100621.72;4961687;28;20045;-66
2022/11/08 10:41:55;;;;;;;;;;;;;;;13.90;71.43;100625.22;4992204;28;20132;-67
2022/11/08 10:44:25;;;;;;;3.92;1.38;;;;;;;13.85;69.88;100616.56;5012653;28;19913;-67
2022/11/08 10:46:59;;;;;;;4.95;1.50;;;;;;;13.86;70.37;100628.63;5008360;28;20022;-67
2022/11/08 10:49:47;;;;;;;3.30;1.30;;;;;;;13.87;70.77;100607.09;5011992;28;20405;-66
2022/11/08 10:52:39;;;;;;;5.43;1.45;;;;;;;13.88;70.39;100621.75;4993855;28;20057;-65
2022/11/08 10:55:07;;;;;;;4.72;1.33;;;;;;;13.88;70.35;100614.00;5006970;28;20034;-67
2022/11/08 10:57:43;;;;;;;2.03;1.20;;;;;;;13.91;70.91;100606.28;4995311;28;20039;-66
2022/11/08 11:00:31;;;;;;;5.05;1.50;;;;;;;13.96;70.97;100593.41;5006781;28;20056;-65
2022/11/08 11:03:22;;;;;;;3.10;1.40;;;;;;;14.00;70.35;100589.13;5002513;28;20041;-66
2022/11/08 11:06:04;;;;;;;3.85;1.58;;;;;;;14.00;70.20;100584.81;5015241;28;20025;-66
2022/11/08 11:08:31;;;;;;;3.35;1.30;;;;;;;14.03;69.63;100596.91;5013846;28;20013;-66
2022/11/08 11:11:21;;;;;;;5.32;1.45;;;;;;;14.03;70.27;100594.34;5012238;28;20144;-68
2022/11/08 11:14:05;;;;;;;2.33;1.10;;;;;;;14.05;69.86;100582.28;5010282;28;20537;-67
2022/11/08 11:16:31;;;;;;;3.22;1.58;;;;;;;14.03;69.54;100573.66;5008731;28;20436;-66
2022/11/08 11:19:00;;;;;;;2.97;1.40;;;;;;;14.03;69.96;100584.00;5005736;28;20026;-65
2022/11/08 11:21:32;;;;;;;2.63;1.25;;;;;;;14.03;70.08;100577.09;5010799;28;20042;-66
2022/11/08 11:24:09;;;;;;;4.82;1.33;;;;;;;14.03;70.83;100584.00;5011100;28;20053;-66
2022/11/08 11:26:45;;;;;;;3.10;1.50;;;;;;;14.04;69.91;100568.50;5007042;28;20041;-67
2022/11/08 11:29:22;;;;;;;6.93;1.70;;;;;;;14.05;70.58;100561.59;5006861;28;20076;-67
2022/11/08 11:31:50;;;;;;;4.47;1.20;;;;;;;14.06;70.14;100555.56;4996759;28;20026;-65
2022/11/08 11:34:16;;;;;;;5.18;1.27;;;;;;;14.09;70.46;100559.06;5007764;28;20226;-67
2022/11/08 11:36:46;;;;;;;3.63;1.65;;;;;;;14.10;69.65;100552.16;5017153;28;20034;-67
2022/11/08 11:39:23;;;;;;;4.03;1.52;;;;;;;14.11;70.76;100547.00;4996803;28;20034;-66
2022/11/08 11:42:27;;;;;;;5.97;1.60;;;;;;;14.18;70.29;100559.13;4989629;28;20120;-66
2022/11/08 11:45:10;;;;;;;3.00;1.33;;;;;;;14.25;69.97;100556.59;5012071;28;21255;-66
2022/11/08 11:47:54;;;;;;;2.85;1.42;;;;;;;14.29;70.05;100560.94;5012993;28;20481;-66
2022/11/08 11:50:30;;;;;;;4.55;1.42;;;;;;;14.32;69.93;100545.44;5006338;28;20503;-66